createdAt,value
2023-11-17T00:00:42.837Z,60.76
2023-11-17T00:02:45.402Z,60.29
2023-11-17T00:04:47.964Z,60.00
2023-11-17T00:06:50.519Z,60.02
2023-11-17T00:08:56.775Z,59.75
2023-11-17T00:10:59.944Z,59.97
2023-11-17T00:13:02.587Z,59.68
2023-11-17T00:15:08.293Z,59.58
2023-11-17T00:17:12.221Z,60.07
2023-11-17T00:19:15.845Z,59.77
2023-11-17T00:21:18.900Z,60.47
2023-11-17T00:23:21.316Z,60.09
2023-11-17T00:25:25.166Z,59.62
2023-11-17T00:27:27.606Z,60.04
2023-11-17T00:29:30.897Z,59.95
2023-11-17T00:31:33.316Z,60.33
2023-11-17T00:33:35.882Z,59.92
2023-11-17T00:35:38.237Z,59.89
2023-11-17T00:37:40.685Z,59.91
2023-11-17T00:39:43.258Z,60.13
2023-11-17T00:41:46.283Z,59.90
2023-11-17T00:43:48.738Z,59.92
2023-11-17T00:45:53.495Z,60.02
2023-11-17T00:47:56.027Z,59.77
2023-11-17T00:49:58.776Z,59.94
2023-11-17T00:52:03.570Z,59.62
2023-11-17T00:54:06.454Z,59.59
2023-11-17T00:56:12.014Z,59.91
2023-11-17T00:58:14.405Z,59.51
2023-11-17T01:00:17.031Z,59.59
2023-11-17T01:02:19.900Z,59.79
2023-11-17T01:04:23.095Z,59.68
2023-11-17T01:06:25.575Z,59.88
2023-11-17T01:08:30.149Z,59.82
2023-11-17T01:10:32.489Z,60.01
2023-11-17T01:12:36.574Z,59.98
2023-11-17T01:14:39.162Z,59.39
2023-11-17T01:16:41.813Z,59.72
2023-11-17T01:18:44.389Z,59.66
2023-11-17T01:20:46.854Z,59.63
2023-11-17T01:22:49.294Z,59.97
2023-11-17T01:24:52.008Z,59.97
2023-11-17T01:26:54.473Z,59.99
2023-11-17T01:28:57.500Z,59.49
2023-11-17T01:31:00.115Z,58.85
2023-11-17T01:33:02.512Z,58.81
2023-11-17T01:35:05.570Z,58.88
2023-11-17T01:37:10.090Z,58.88
2023-11-17T01:39:13.135Z,58.56
2023-11-17T01:41:15.556Z,58.67
2023-11-17T01:43:18.666Z,57.98
2023-11-17T01:45:22.728Z,58.49
2023-11-17T01:47:25.972Z,58.56
2023-11-17T01:49:28.679Z,58.16
2023-11-17T01:51:32.675Z,57.86
2023-11-17T01:53:35.341Z,58.01
2023-11-17T01:55:37.723Z,57.54
2023-11-17T01:57:41.024Z,57.69
2023-11-17T01:59:43.558Z,57.19
2023-11-17T02:01:47.637Z,57.19
2023-11-17T02:03:50.478Z,56.91
2023-11-17T02:06:06.787Z,56.73
2023-11-17T02:08:52.577Z,55.87
2023-11-17T02:11:01.909Z,56.11
2023-11-17T02:13:16.126Z,56.04
2023-11-17T02:15:23.124Z,55.63
2023-11-17T02:17:30.380Z,56.07
2023-11-17T02:19:39.036Z,55.03
2023-11-17T02:21:42.834Z,55.42
2023-11-17T02:23:48.839Z,54.55
2023-11-17T02:26:24.082Z,54.75
2023-11-17T02:29:00.395Z,53.44
2023-11-17T02:31:34.241Z,53.82
2023-11-17T02:33:37.005Z,54.55
2023-11-17T02:35:45.216Z,54.01
2023-11-17T02:37:51.867Z,54.80
2023-11-17T02:39:56.515Z,54.35
2023-11-17T02:41:59.180Z,54.38
2023-11-17T02:44:13.939Z,54.22
2023-11-17T02:46:21.678Z,53.63
2023-11-17T02:48:29.963Z,53.89
2023-11-17T02:50:40.393Z,53.24
2023-11-17T02:53:02.041Z,53.84
2023-11-17T02:55:05.531Z,53.54
2023-11-17T02:57:09.738Z,53.43
2023-11-17T02:59:13.331Z,53.48
2023-11-17T03:01:17.217Z,53.08
2023-11-17T03:03:24.509Z,52.93
2023-11-17T03:05:30.157Z,52.31
2023-11-17T03:07:32.586Z,52.57
2023-11-17T03:09:35.653Z,52.86
2023-11-17T03:11:38.918Z,52.93
2023-11-17T03:13:41.700Z,53.21
2023-11-17T03:15:45.043Z,53.64
2023-11-17T03:17:47.437Z,53.79
2023-11-17T03:19:49.998Z,54.56
2023-11-17T03:21:55.890Z,55.80
2023-11-17T03:23:58.440Z,55.66
2023-11-17T03:26:01.897Z,55.76
2023-11-17T03:28:04.793Z,55.90
2023-11-17T03:30:10.999Z,55.03
2023-11-17T03:32:13.732Z,55.91
2023-11-17T03:34:31.040Z,56.31
2023-11-17T03:36:34.678Z,56.11
2023-11-17T03:38:37.235Z,56.73
2023-11-17T03:40:39.754Z,57.23
2023-11-17T03:42:42.954Z,57.51
2023-11-17T03:44:45.568Z,57.15
2023-11-17T03:46:47.983Z,55.34
2023-11-17T03:48:54.177Z,55.94
2023-11-17T03:50:56.594Z,55.23
2023-11-17T03:53:01.060Z,55.43
2023-11-17T03:55:05.593Z,55.10
2023-11-17T03:57:08.204Z,54.75
2023-11-17T03:59:14.807Z,54.92
2023-11-17T04:01:17.375Z,54.15
2023-11-17T04:03:21.484Z,53.62
2023-11-17T04:05:23.981Z,52.88
2023-11-17T04:07:26.777Z,52.14
2023-11-17T04:09:29.357Z,52.36
2023-11-17T04:11:35.036Z,52.79
2023-11-17T04:13:40.632Z,53.62
2023-11-17T04:15:43.144Z,53.51
2023-11-17T04:17:47.008Z,53.45
2023-11-17T04:19:49.657Z,53.61
2023-11-17T04:21:52.110Z,53.18
2023-11-17T04:23:54.707Z,53.35
2023-11-17T04:25:57.079Z,54.43
2023-11-17T04:27:59.801Z,55.08
2023-11-17T04:30:02.381Z,54.97
2023-11-17T04:32:05.379Z,55.04
2023-11-17T04:34:07.866Z,55.54
2023-11-17T04:36:13.302Z,54.60
2023-11-17T04:38:15.737Z,55.34
2023-11-17T04:40:18.270Z,56.70
2023-11-17T04:42:21.173Z,56.58
2023-11-17T04:44:23.621Z,56.39
2023-11-17T04:46:26.107Z,55.92
2023-11-17T04:48:30.098Z,56.60
2023-11-17T04:50:33.453Z,56.81
2023-11-17T04:52:35.977Z,56.52
2023-11-17T04:54:38.613Z,56.65
2023-11-17T04:56:41.200Z,56.97
2023-11-17T04:58:43.717Z,56.88
2023-11-17T05:00:48.771Z,56.76
2023-11-17T05:02:51.572Z,56.16
2023-11-17T05:04:53.955Z,56.43
2023-11-17T05:06:57.191Z,55.73
2023-11-17T05:08:59.756Z,54.91
2023-11-17T05:11:02.257Z,54.97
2023-11-17T05:13:04.804Z,55.48
2023-11-17T05:15:08.830Z,55.71
2023-11-17T05:17:16.571Z,56.21
2023-11-17T05:19:19.056Z,56.46
2023-11-17T05:21:21.954Z,55.72
2023-11-17T05:23:24.370Z,56.32
2023-11-17T05:25:29.293Z,56.74
2023-11-17T05:27:31.714Z,56.19
2023-11-17T05:29:34.463Z,56.67
2023-11-17T05:31:37.151Z,55.55
2023-11-17T05:33:41.368Z,55.91
2023-11-17T05:35:45.526Z,56.47
2023-11-17T05:37:47.922Z,56.71
2023-11-17T05:39:51.126Z,57.45
2023-11-17T05:41:54.480Z,56.79
2023-11-17T05:43:56.924Z,56.60
2023-11-17T05:46:01.903Z,56.57
2023-11-17T05:48:07.810Z,56.55
2023-11-17T05:50:13.441Z,56.84
2023-11-17T05:52:17.797Z,56.99
2023-11-17T05:54:20.289Z,57.24
2023-11-17T05:56:23.525Z,56.98
2023-11-17T05:58:26.153Z,56.81
2023-11-17T06:00:29.178Z,56.99
2023-11-17T06:02:33.209Z,56.99
2023-11-17T06:04:36.412Z,56.86
2023-11-17T06:06:41.011Z,57.14
2023-11-17T06:08:43.569Z,57.18
2023-11-17T06:10:46.198Z,56.91
2023-11-17T06:12:49.801Z,56.30
2023-11-17T06:14:52.159Z,56.19
2023-11-17T06:16:55.995Z,56.39
2023-11-17T06:18:58.527Z,56.32
2023-11-17T06:21:01.074Z,56.26
2023-11-17T06:23:03.599Z,56.69
2023-11-17T06:25:07.282Z,56.52
2023-11-17T06:27:12.241Z,56.05
2023-11-17T06:29:15.523Z,55.40
2023-11-17T06:31:18.701Z,55.56
2023-11-17T06:33:21.282Z,55.31
2023-11-17T06:35:23.759Z,55.60
2023-11-17T06:37:26.335Z,54.31
2023-11-17T06:39:30.862Z,54.13
2023-11-17T06:41:33.649Z,53.65
2023-11-17T06:43:36.162Z,52.75
2023-11-17T06:45:39.179Z,53.37
2023-11-17T06:47:47.045Z,52.75
2023-11-17T06:49:49.514Z,52.76
2023-11-17T06:51:52.577Z,52.78
2023-11-17T06:53:55.019Z,52.66
2023-11-17T06:55:57.523Z,52.36
2023-11-17T06:58:00.288Z,52.60
2023-11-17T07:00:02.858Z,52.33
2023-11-17T07:02:07.283Z,52.12
2023-11-17T07:04:12.487Z,51.54
2023-11-17T07:06:18.422Z,51.69
2023-11-17T07:08:20.773Z,51.84
2023-11-17T07:10:26.592Z,51.09
2023-11-17T07:12:29.954Z,51.63
2023-11-17T07:14:33.400Z,51.47
2023-11-17T07:16:43.814Z,51.59
2023-11-17T07:18:52.311Z,50.64
2023-11-17T07:20:55.836Z,50.40
2023-11-17T07:22:58.705Z,51.10
2023-11-17T07:25:02.217Z,50.99
2023-11-17T07:27:05.013Z,51.35
2023-11-17T07:29:08.037Z,50.79
2023-11-17T07:31:11.935Z,49.87
2023-11-17T07:33:18.081Z,50.01
2023-11-17T07:35:20.926Z,47.85
2023-11-17T07:37:25.644Z,48.66
2023-11-17T07:39:28.825Z,49.32
2023-11-17T07:41:31.605Z,49.43
2023-11-17T07:43:34.206Z,49.62
2023-11-17T07:45:38.820Z,49.10
2023-11-17T07:47:43.247Z,49.54
2023-11-17T07:49:45.870Z,49.81
2023-11-17T07:51:49.311Z,50.24
2023-11-17T07:53:53.398Z,49.82
2023-11-17T07:55:56.434Z,50.49
2023-11-17T07:57:58.917Z,50.45
2023-11-17T08:00:01.415Z,50.15
2023-11-17T08:02:07.619Z,50.49
2023-11-17T08:04:10.420Z,50.05
2023-11-17T08:06:13.378Z,50.15
2023-11-17T08:08:18.711Z,50.56
2023-11-17T08:10:22.070Z,49.90
2023-11-17T08:12:24.608Z,49.41
2023-11-17T08:14:27.079Z,49.65
2023-11-17T08:16:29.660Z,49.72
2023-11-17T08:18:32.078Z,49.68
2023-11-17T08:20:34.712Z,49.74
2023-11-17T08:22:37.160Z,48.90
2023-11-17T08:24:39.560Z,48.52
2023-11-17T08:26:43.501Z,47.40
2023-11-17T08:28:46.606Z,47.29
2023-11-17T08:30:53.012Z,46.06
2023-11-17T08:32:56.928Z,46.17
2023-11-17T08:34:59.373Z,46.27
2023-11-17T08:37:01.864Z,46.43
2023-11-17T08:39:04.482Z,45.61
2023-11-17T08:41:07.025Z,46.48
2023-11-17T08:43:09.439Z,46.10
2023-11-17T08:45:13.871Z,46.30
2023-11-17T08:47:16.302Z,45.95
2023-11-17T08:49:18.789Z,45.97
2023-11-17T08:51:21.247Z,46.10
2023-11-17T08:53:25.201Z,45.72
2023-11-17T08:55:29.761Z,45.89
2023-11-17T08:57:37.941Z,45.99
2023-11-17T08:59:40.633Z,46.40
2023-11-17T09:01:44.092Z,45.73
2023-11-17T09:03:46.743Z,45.84
2023-11-17T09:05:50.300Z,45.50
2023-11-17T09:07:53.369Z,46.20
2023-11-17T09:09:55.790Z,46.54
2023-11-17T09:12:01.133Z,46.18
2023-11-17T09:14:08.125Z,46.30
2023-11-17T09:16:11.007Z,45.68
2023-11-17T09:18:15.569Z,46.18
2023-11-17T09:20:19.341Z,45.78
2023-11-17T09:22:23.266Z,45.82
2023-11-17T09:24:25.822Z,46.04
2023-11-17T09:26:28.339Z,45.79
2023-11-17T09:28:31.254Z,45.77
2023-11-17T09:30:34.123Z,46.15
2023-11-17T09:32:36.742Z,46.14
2023-11-17T09:34:39.212Z,45.98
2023-11-17T09:36:42.317Z,46.36
2023-11-17T09:38:44.825Z,46.08
2023-11-17T09:40:48.267Z,46.29
2023-11-17T09:42:55.328Z,46.27
2023-11-17T09:44:57.831Z,46.67
2023-11-17T09:47:23.170Z,46.09
2023-11-17T09:49:30.001Z,46.71
2023-11-17T09:51:35.002Z,46.87
2023-11-17T09:53:40.016Z,46.94
2023-11-17T09:55:46.222Z,47.03
2023-11-17T09:57:55.025Z,47.01
2023-11-17T09:59:58.570Z,48.09
2023-11-17T10:02:01.405Z,48.33
2023-11-17T10:04:07.128Z,48.22
2023-11-17T10:06:11.478Z,48.35
2023-11-17T10:08:18.818Z,48.46
2023-11-17T10:10:23.433Z,48.85
2023-11-17T10:12:29.014Z,48.74
2023-11-17T10:14:33.608Z,48.99
2023-11-17T10:16:36.561Z,48.86
2023-11-17T10:18:41.857Z,49.24
2023-11-17T10:20:44.923Z,49.32
2023-11-17T10:22:51.793Z,49.63
2023-11-17T10:24:54.444Z,49.59
2023-11-17T10:26:58.551Z,49.86
2023-11-17T10:29:01.692Z,50.11
2023-11-17T10:31:07.198Z,50.03
2023-11-17T10:33:19.396Z,50.63
2023-11-17T10:35:27.856Z,50.46
2023-11-17T10:37:36.662Z,51.23
2023-11-17T10:40:00.690Z,52.68
2023-11-17T10:42:19.077Z,51.82
2023-11-17T10:44:34.286Z,52.08
2023-11-17T10:46:36.887Z,52.35
2023-11-17T10:48:41.050Z,52.34
2023-11-17T10:50:45.132Z,52.93
2023-11-17T10:52:49.081Z,53.09
2023-11-17T10:54:51.523Z,52.92
2023-11-17T10:56:54.184Z,53.40
2023-11-17T10:58:57.595Z,54.08
2023-11-17T11:01:00.351Z,54.07
2023-11-17T11:03:02.972Z,53.79
2023-11-17T11:05:06.658Z,54.49
2023-11-17T11:07:09.103Z,54.65
2023-11-17T11:09:20.772Z,54.73
2023-11-17T11:11:27.695Z,54.38
2023-11-17T11:13:31.707Z,54.23
2023-11-17T11:15:35.168Z,55.02
2023-11-17T11:17:52.503Z,55.12
2023-11-17T11:20:04.595Z,54.87
2023-11-17T11:22:19.297Z,55.25
2023-11-17T11:24:33.358Z,54.88
2023-11-17T11:26:39.566Z,55.95
2023-11-17T11:28:42.978Z,55.84
2023-11-17T11:30:46.350Z,56.20
2023-11-17T11:32:49.332Z,56.38
2023-11-17T11:34:52.173Z,57.80
2023-11-17T11:36:54.550Z,56.81
2023-11-17T11:38:57.602Z,57.48
2023-11-17T11:41:00.960Z,57.34
2023-11-17T11:43:05.228Z,57.30
2023-11-17T11:45:09.242Z,57.72
2023-11-17T11:47:12.251Z,58.21
2023-11-17T11:49:17.105Z,58.15
2023-11-17T11:51:24.854Z,58.05
2023-11-17T11:53:37.957Z,59.92
2023-11-17T11:55:40.978Z,59.01
2023-11-17T11:57:59.071Z,60.55
2023-11-17T12:00:14.796Z,59.70
2023-11-17T12:02:18.845Z,59.82
2023-11-17T12:04:22.463Z,60.08
2023-11-17T12:06:30.709Z,61.36
2023-11-17T12:08:34.359Z,61.08
2023-11-17T12:10:45.700Z,61.38
2023-11-17T12:12:48.644Z,61.12
2023-11-17T12:14:52.944Z,61.60
2023-11-17T12:16:59.670Z,62.20
2023-11-17T12:19:05.138Z,62.86
2023-11-17T12:21:23.966Z,63.72
2023-11-17T12:23:46.893Z,64.11
2023-11-17T12:25:52.519Z,62.84
2023-11-17T12:27:57.027Z,63.06
2023-11-17T12:30:02.765Z,63.20
2023-11-17T12:32:06.471Z,62.77
2023-11-17T12:34:12.788Z,63.10
2023-11-17T12:36:18.432Z,62.54
2023-11-17T12:38:22.968Z,62.62
2023-11-17T12:40:29.975Z,62.75
2023-11-17T12:42:32.454Z,62.23
2023-11-17T12:44:35.302Z,62.27
2023-11-17T12:46:38.048Z,63.00
2023-11-17T12:48:40.807Z,63.07
2023-11-17T12:50:43.329Z,62.13
2023-11-17T12:53:08.112Z,63.61
2023-11-17T12:55:11.752Z,62.99
2023-11-17T12:57:15.891Z,62.66
2023-11-17T12:59:24.252Z,62.67
2023-11-17T13:01:31.281Z,62.38
2023-11-17T13:03:34.072Z,62.11
2023-11-17T13:05:36.754Z,62.57
2023-11-17T13:07:39.520Z,62.16
2023-11-17T13:09:42.250Z,62.44
2023-11-17T13:11:48.128Z,62.41
2023-11-17T13:13:53.897Z,62.87
2023-11-17T13:15:56.308Z,62.56
2023-11-17T13:17:59.593Z,62.53
2023-11-17T13:20:02.487Z,62.47
2023-11-17T13:22:05.507Z,62.94
2023-11-17T13:24:08.439Z,63.54
2023-11-17T13:26:27.038Z,63.51
2023-11-17T13:28:30.138Z,63.31
2023-11-17T13:30:32.744Z,63.34
2023-11-17T13:32:52.587Z,63.49
2023-11-17T13:34:56.253Z,62.55
2023-11-17T13:37:00.221Z,63.16
2023-11-17T13:39:14.467Z,63.19
2023-11-17T13:41:17.593Z,62.75
2023-11-17T13:43:20.223Z,62.97
2023-11-17T13:45:23.586Z,63.24
2023-11-17T13:47:29.198Z,62.78
2023-11-17T13:49:36.227Z,63.65
2023-11-17T13:51:39.747Z,63.24
2023-11-17T13:53:42.464Z,63.25
2023-11-17T13:55:47.674Z,63.63
2023-11-17T13:57:50.644Z,63.30
2023-11-17T13:59:53.153Z,64.14
2023-11-17T14:02:00.702Z,64.15
2023-11-17T14:04:07.849Z,64.53
2023-11-17T14:06:10.778Z,63.57
2023-11-17T14:08:14.151Z,63.76
2023-11-17T14:10:19.366Z,63.77
2023-11-17T14:12:22.767Z,64.09
2023-11-17T14:14:28.606Z,64.05
2023-11-17T14:16:31.576Z,64.89
2023-11-17T14:18:34.196Z,64.22
2023-11-17T14:20:38.298Z,66.00
2023-11-17T14:22:41.970Z,65.50
2023-11-17T14:24:45.762Z,64.60
2023-11-17T14:26:48.960Z,64.22
2023-11-17T14:28:51.611Z,65.07
2023-11-17T14:30:54.599Z,64.53
2023-11-17T14:32:57.177Z,65.11
2023-11-17T14:34:59.797Z,64.82
2023-11-17T14:37:02.452Z,65.09
2023-11-17T14:39:10.576Z,64.72
2023-11-17T14:41:15.167Z,64.85
2023-11-17T14:43:18.179Z,64.43
2023-11-17T14:45:21.890Z,64.70
2023-11-17T14:47:28.323Z,64.32
2023-11-17T14:49:31.835Z,64.31
2023-11-17T14:51:34.274Z,65.29
2023-11-17T14:53:36.875Z,65.66
2023-11-17T14:55:39.374Z,65.22
2023-11-17T14:57:41.930Z,65.08
2023-11-17T14:59:46.753Z,65.58
2023-11-17T15:01:49.388Z,64.83
2023-11-17T15:03:51.833Z,65.15
2023-11-17T15:05:54.433Z,65.18
2023-11-17T15:07:56.815Z,64.38
2023-11-17T15:09:59.257Z,65.16
2023-11-17T15:12:01.860Z,64.94
2023-11-17T15:14:07.317Z,65.23
2023-11-17T15:16:11.462Z,65.48
2023-11-17T15:18:14.440Z,65.12
2023-11-17T15:20:19.209Z,65.10
2023-11-17T15:22:22.379Z,64.81
2023-11-17T15:24:25.863Z,64.93
2023-11-17T15:26:28.774Z,64.94
2023-11-17T15:28:37.386Z,64.87
2023-11-17T15:30:47.896Z,65.46
2023-11-17T15:32:50.793Z,65.18
2023-11-17T15:34:55.331Z,65.32
2023-11-17T15:36:57.789Z,65.33
2023-11-17T15:39:02.215Z,65.18
2023-11-17T15:41:05.334Z,65.31
2023-11-17T15:43:08.775Z,65.33
2023-11-17T15:45:13.231Z,65.62
2023-11-17T15:47:16.317Z,65.69
2023-11-17T15:49:18.812Z,66.72
2023-11-17T15:51:21.370Z,66.07
2023-11-17T15:53:24.500Z,66.16
2023-11-17T15:55:27.040Z,66.60
2023-11-17T15:57:30.701Z,66.22
2023-11-17T15:59:34.648Z,66.70
2023-11-17T16:01:40.424Z,67.14
2023-11-17T16:03:43.444Z,66.30
2023-11-17T16:05:46.449Z,66.74
2023-11-17T16:07:54.640Z,66.62
2023-11-17T16:09:57.416Z,67.16
2023-11-17T16:12:00.658Z,67.19
2023-11-17T16:14:06.970Z,67.00
2023-11-17T16:16:10.938Z,66.43
2023-11-17T16:18:13.429Z,66.76
2023-11-17T16:20:17.873Z,67.02
2023-11-17T16:22:20.562Z,66.81
2023-11-17T16:24:23.047Z,67.44
2023-11-17T16:26:25.522Z,67.02
2023-11-17T16:28:27.889Z,66.87
2023-11-17T16:30:30.838Z,67.50
2023-11-17T16:32:33.678Z,67.48
2023-11-17T16:34:36.505Z,67.28
2023-11-17T16:36:47.257Z,67.09
2023-11-17T16:38:51.716Z,67.67
2023-11-17T16:40:58.268Z,67.42
2023-11-17T16:43:02.122Z,67.64
2023-11-17T16:45:09.590Z,66.88
2023-11-17T16:47:12.648Z,67.12
2023-11-17T16:49:21.248Z,67.19
2023-11-17T16:51:23.736Z,68.30
2023-11-17T16:53:26.507Z,67.70
2023-11-17T16:55:29.020Z,67.89
2023-11-17T16:57:32.614Z,67.50
2023-11-17T16:59:37.422Z,67.18
2023-11-17T17:01:40.322Z,67.68
2023-11-17T17:03:43.065Z,68.38
2023-11-17T17:05:45.682Z,67.94
2023-11-17T17:07:51.176Z,67.83
2023-11-17T17:09:53.677Z,68.08
2023-11-17T17:11:57.953Z,67.90
2023-11-17T17:14:13.214Z,67.90
2023-11-17T17:16:22.515Z,67.99
2023-11-17T17:18:26.055Z,67.71
2023-11-17T17:20:29.359Z,67.60
2023-11-17T17:22:32.048Z,68.10
2023-11-17T17:24:38.075Z,67.70
2023-11-17T17:26:40.531Z,67.62
2023-11-17T17:28:43.065Z,67.75
2023-11-17T17:30:45.622Z,67.55
2023-11-17T17:32:49.020Z,67.58
2023-11-17T17:34:52.226Z,68.18
2023-11-17T17:36:54.911Z,67.43
2023-11-17T17:38:57.354Z,67.16
2023-11-17T17:41:01.821Z,67.74
2023-11-17T17:43:08.091Z,67.40
2023-11-17T17:45:11.770Z,68.01
2023-11-17T17:47:14.996Z,67.50
2023-11-17T17:49:18.278Z,67.08
2023-11-17T17:51:21.391Z,67.23
2023-11-17T17:53:23.849Z,66.99
2023-11-17T17:55:28.673Z,66.83
2023-11-17T17:57:31.210Z,67.33
2023-11-17T17:59:47.010Z,67.00
2023-11-17T18:01:51.363Z,66.61
2023-11-17T18:03:57.048Z,66.88
2023-11-17T18:06:03.563Z,66.69
2023-11-17T18:08:06.384Z,66.73
2023-11-17T18:10:12.777Z,67.15
2023-11-17T18:12:15.877Z,67.36
2023-11-17T18:14:18.480Z,67.87
2023-11-17T18:16:23.297Z,66.88
2023-11-17T18:18:26.151Z,66.94
2023-11-17T18:20:32.470Z,66.45
2023-11-17T18:22:35.487Z,66.94
2023-11-17T18:24:38.115Z,67.19
2023-11-17T18:26:59.596Z,67.76
2023-11-17T18:29:06.135Z,66.93
2023-11-17T18:31:08.765Z,66.94
2023-11-17T18:33:11.806Z,67.11
2023-11-17T18:35:17.051Z,67.48
2023-11-17T18:37:19.767Z,67.54
2023-11-17T18:39:23.069Z,67.49
2023-11-17T18:41:27.232Z,67.34
2023-11-17T18:43:30.103Z,67.92
2023-11-17T18:45:34.332Z,67.41
2023-11-17T18:47:38.327Z,67.09
2023-11-17T18:49:40.824Z,67.63
2023-11-17T18:51:43.803Z,67.15
2023-11-17T18:53:46.782Z,67.45
2023-11-17T18:55:51.870Z,67.33
2023-11-17T18:57:55.471Z,67.29
2023-11-17T18:59:58.094Z,67.17
2023-11-17T19:02:00.946Z,67.77
2023-11-17T19:04:09.531Z,67.80
2023-11-17T19:06:12.650Z,67.50
2023-11-17T19:08:16.158Z,67.23
2023-11-17T19:10:21.900Z,67.24
2023-11-17T19:12:26.512Z,67.44
2023-11-17T19:14:29.751Z,67.47
2023-11-17T19:16:33.268Z,67.30
2023-11-17T19:18:38.443Z,68.15
2023-11-17T19:20:42.981Z,67.70
2023-11-17T19:22:47.195Z,67.27
2023-11-17T19:24:49.884Z,66.94
2023-11-17T19:27:06.494Z,68.27
2023-11-17T19:29:11.494Z,67.59
2023-11-17T19:31:15.281Z,67.96
2023-11-17T19:33:26.161Z,67.82
2023-11-17T19:35:30.393Z,67.62
2023-11-17T19:37:33.412Z,67.58
2023-11-17T19:39:38.970Z,67.94
2023-11-17T19:41:41.806Z,68.17
2023-11-17T19:43:45.159Z,68.75
2023-11-17T19:45:48.768Z,68.10
2023-11-17T19:47:51.507Z,68.01
2023-11-17T19:49:54.097Z,68.04
2023-11-17T19:51:57.785Z,68.19
2023-11-17T19:54:00.277Z,67.99
2023-11-17T19:56:05.565Z,67.63
2023-11-17T19:58:11.083Z,68.49
2023-11-17T20:00:14.573Z,68.22
2023-11-17T20:02:17.206Z,68.41
2023-11-17T20:04:19.961Z,67.41
2023-11-17T20:06:22.530Z,67.22
2023-11-17T20:08:26.152Z,67.87
2023-11-17T20:10:31.832Z,67.93
2023-11-17T20:12:34.391Z,67.36
2023-11-17T20:14:38.431Z,67.65
2023-11-17T20:16:44.389Z,67.37
2023-11-17T20:18:47.293Z,67.58
2023-11-17T20:20:49.681Z,66.96
2023-11-17T20:22:52.737Z,67.15
2023-11-17T20:24:58.734Z,67.21
2023-11-17T20:27:05.256Z,67.33
2023-11-17T20:29:13.077Z,67.61
2023-11-17T20:31:17.387Z,67.12
2023-11-17T20:33:19.922Z,67.17
2023-11-17T20:35:25.572Z,67.31
2023-11-17T20:37:28.473Z,67.87
2023-11-17T20:39:35.380Z,67.52
2023-11-17T20:41:38.059Z,66.89
2023-11-17T20:43:41.993Z,66.78
2023-11-17T20:45:44.976Z,66.97
2023-11-17T20:47:50.987Z,66.21
2023-11-17T20:49:54.119Z,66.05
2023-11-17T20:51:56.495Z,66.26
2023-11-17T20:54:01.174Z,66.42
2023-11-17T20:56:04.120Z,66.25
2023-11-17T20:58:08.546Z,66.57
2023-11-17T21:00:15.921Z,66.16
2023-11-17T21:02:19.845Z,66.58
2023-11-17T21:04:22.448Z,66.37
2023-11-17T21:06:25.638Z,66.19
2023-11-17T21:08:28.008Z,65.87
2023-11-17T21:10:32.380Z,66.17
2023-11-17T21:12:35.181Z,66.79
2023-11-17T21:14:38.191Z,66.56
2023-11-17T21:16:41.001Z,66.22
2023-11-17T21:18:44.419Z,66.40
2023-11-17T21:20:46.836Z,66.49
2023-11-17T21:22:50.018Z,66.07
2023-11-17T21:24:52.681Z,65.87
2023-11-17T21:26:55.405Z,65.84
2023-11-17T21:29:01.070Z,66.00
2023-11-17T21:31:04.041Z,65.76
2023-11-17T21:33:08.387Z,64.66
2023-11-17T21:35:15.486Z,65.49
2023-11-17T21:37:18.090Z,65.28
2023-11-17T21:39:21.908Z,65.18
2023-11-17T21:41:24.325Z,65.20
2023-11-17T21:43:27.162Z,65.33
2023-11-17T21:45:30.131Z,64.95
2023-11-17T21:47:32.732Z,64.76
2023-11-17T21:49:35.166Z,65.34
2023-11-17T21:51:40.032Z,64.80
2023-11-17T21:53:42.864Z,65.25
2023-11-17T21:55:45.461Z,65.99
2023-11-17T21:57:48.216Z,65.55
2023-11-17T21:59:50.750Z,65.65
2023-11-17T22:01:54.653Z,65.61
2023-11-17T22:03:57.812Z,65.68
2023-11-17T22:06:00.571Z,65.51
2023-11-17T22:08:03.139Z,65.81
2023-11-17T22:10:06.436Z,65.63
2023-11-17T22:12:12.247Z,66.02
2023-11-17T22:14:14.929Z,65.98
2023-11-17T22:16:17.504Z,66.16
2023-11-17T22:18:19.944Z,65.47
2023-11-17T22:20:22.641Z,65.92
2023-11-17T22:22:25.837Z,66.00
2023-11-17T22:24:28.293Z,65.59
2023-11-17T22:26:31.318Z,65.77
2023-11-17T22:28:35.028Z,66.39
2023-11-17T22:30:38.368Z,65.75
2023-11-17T22:32:45.577Z,66.10
2023-11-17T22:34:48.062Z,66.07
2023-11-17T22:36:51.793Z,66.06
2023-11-17T22:38:54.172Z,65.82
2023-11-17T22:40:56.705Z,66.33
2023-11-17T22:42:59.137Z,65.65
2023-11-17T22:45:01.609Z,66.40
2023-11-17T22:47:04.111Z,65.64
2023-11-17T22:49:06.633Z,65.58
2023-11-17T22:51:08.953Z,65.74
2023-11-17T22:53:11.567Z,65.73
2023-11-17T22:55:14.090Z,65.43
2023-11-17T22:57:17.176Z,65.37
2023-11-17T22:59:20.048Z,65.61
2023-11-17T23:01:22.692Z,65.82
2023-11-17T23:03:26.569Z,65.89
2023-11-17T23:05:28.888Z,65.87
2023-11-17T23:07:31.840Z,66.14
2023-11-17T23:09:40.599Z,66.09
2023-11-17T23:11:45.421Z,66.28
2023-11-17T23:13:51.096Z,65.98
2023-11-17T23:15:53.780Z,66.20
2023-11-17T23:17:57.013Z,66.07
2023-11-17T23:20:01.711Z,66.17
2023-11-17T23:22:04.395Z,65.94
2023-11-17T23:24:07.370Z,66.07
2023-11-17T23:26:09.837Z,65.76
2023-11-17T23:28:12.205Z,65.63
2023-11-17T23:30:15.418Z,65.48
2023-11-17T23:32:17.886Z,65.83
2023-11-17T23:34:21.208Z,65.67
2023-11-17T23:36:23.945Z,64.80
2023-11-17T23:38:26.450Z,65.09
2023-11-17T23:40:29.208Z,65.24
2023-11-17T23:42:31.751Z,64.77
2023-11-17T23:44:34.450Z,64.98
2023-11-17T23:46:38.769Z,64.55
2023-11-17T23:48:42.427Z,64.89
2023-11-17T23:50:44.886Z,64.79
2023-11-17T23:52:47.235Z,64.05
2023-11-17T23:54:49.809Z,64.21
2023-11-17T23:56:52.160Z,64.76
2023-11-17T23:58:54.605Z,64.59
